createdAt,value
2022-10-19T00:01:53.654Z,12.03
2022-10-19T00:07:14.063Z,12.02
2022-10-19T00:12:34.813Z,12.02
2022-10-19T00:17:55.869Z,12.02
2022-10-19T00:23:16.374Z,12.02
2022-10-19T00:28:37.171Z,12.04
2022-10-19T00:33:58.290Z,12.07
2022-10-19T00:39:19.193Z,12.06
2022-10-19T00:44:39.316Z,11.96
2022-10-19T00:50:00.054Z,11.87
2022-10-19T00:55:20.902Z,11.83
2022-10-19T01:00:41.654Z,11.80
2022-10-19T01:06:03.289Z,11.76
2022-10-19T01:11:47.499Z,11.65
2022-10-19T01:17:38.410Z,11.58
2022-10-19T01:23:05.482Z,11.50
2022-10-19T01:28:44.599Z,11.50
2022-10-19T01:34:20.790Z,11.43
2022-10-19T01:39:53.601Z,11.44
2022-10-19T01:45:25.783Z,11.40
2022-10-19T01:50:46.242Z,11.39
2022-10-19T01:56:08.536Z,11.37
2022-10-19T02:01:35.321Z,11.36
2022-10-19T02:06:56.878Z,11.36
2022-10-19T02:12:20.571Z,11.34
2022-10-19T02:17:46.708Z,11.31
2022-10-19T02:23:07.852Z,11.34
2022-10-19T02:28:31.236Z,11.33
2022-10-19T02:33:52.663Z,11.35
2022-10-19T02:39:13.207Z,11.38
2022-10-19T02:50:19.266Z,11.43
2022-10-19T03:01:03.005Z,11.55
2022-10-19T03:06:23.647Z,11.57
2022-10-19T03:11:43.946Z,11.58
2022-10-19T03:17:05.033Z,11.64
2022-10-19T03:22:27.315Z,11.70
2022-10-19T03:27:48.274Z,11.76
2022-10-19T03:33:08.611Z,11.80
2022-10-19T03:38:29.291Z,11.81
2022-10-19T03:43:50.375Z,11.81
2022-10-19T03:49:11.873Z,11.75
2022-10-19T03:54:32.287Z,11.82
2022-10-19T03:59:52.833Z,11.85
2022-10-19T04:05:13.509Z,11.75
2022-10-19T04:10:34.268Z,11.65
2022-10-19T04:15:54.784Z,11.59
2022-10-19T04:21:30.368Z,11.48
2022-10-19T04:26:53.536Z,11.44
2022-10-19T04:32:14.246Z,11.38
2022-10-19T04:37:35.330Z,11.45
2022-10-19T04:42:55.856Z,11.45
2022-10-19T04:48:16.548Z,11.39
2022-10-19T04:53:39.560Z,11.38
2022-10-19T04:59:01.072Z,11.33
2022-10-19T05:04:21.326Z,11.19
2022-10-19T05:09:41.838Z,10.98
2022-10-19T05:15:02.598Z,10.76
2022-10-19T05:20:24.709Z,10.57
2022-10-19T05:25:45.207Z,10.40
2022-10-19T05:31:07.020Z,10.30
2022-10-19T05:36:34.717Z,10.21
2022-10-19T05:41:55.154Z,10.10
2022-10-19T05:47:15.545Z,9.99
2022-10-19T05:52:36.069Z,9.89
2022-10-19T05:57:56.916Z,9.87
2022-10-19T06:03:17.674Z,9.87
2022-10-19T06:08:39.768Z,9.83
2022-10-19T06:14:02.451Z,9.78
2022-10-19T06:19:23.031Z,9.76
2022-10-19T06:24:43.615Z,9.80
2022-10-19T06:30:04.677Z,9.84
2022-10-19T06:35:25.428Z,9.92
2022-10-19T06:40:45.981Z,10.03
2022-10-19T06:46:08.400Z,10.15
2022-10-19T06:51:32.085Z,10.22
2022-10-19T06:56:52.658Z,10.31
2022-10-19T07:02:13.475Z,10.42
2022-10-19T07:07:34.854Z,10.52
2022-10-19T07:12:56.480Z,10.64
2022-10-19T07:18:17.554Z,10.71
2022-10-19T07:23:40.280Z,10.67
2022-10-19T07:29:01.501Z,10.63
2022-10-19T07:34:24.237Z,10.58
2022-10-19T07:39:47.822Z,10.54
2022-10-19T07:45:08.308Z,10.46
2022-10-19T07:50:28.575Z,10.42
2022-10-19T07:55:49.286Z,10.40
2022-10-19T08:01:13.040Z,10.41
2022-10-19T08:06:33.831Z,10.47
2022-10-19T08:11:54.525Z,10.86
2022-10-19T08:17:17.537Z,11.20
2022-10-19T08:22:38.379Z,11.41
2022-10-19T08:27:59.311Z,11.62
2022-10-19T08:33:19.776Z,11.74
2022-10-19T08:38:43.588Z,11.77
2022-10-19T08:44:10.258Z,11.74
2022-10-19T08:49:32.023Z,11.71
2022-10-19T08:54:54.448Z,11.63
2022-10-19T09:00:35.207Z,11.60
2022-10-19T09:06:22.554Z,11.85
2022-10-19T09:11:46.340Z,12.29
2022-10-19T09:17:13.886Z,12.75
2022-10-19T09:22:35.883Z,13.28
2022-10-19T09:28:27.410Z,13.76
2022-10-19T09:33:57.330Z,14.39
2022-10-19T09:39:18.388Z,14.77
2022-10-19T09:44:38.942Z,15.50
2022-10-19T09:50:15.230Z,15.69
2022-10-19T09:55:42.882Z,16.71
2022-10-19T10:01:03.895Z,17.69
2022-10-19T10:06:24.492Z,20.10
2022-10-19T10:11:49.433Z,24.43
2022-10-19T10:17:17.837Z,26.34
2022-10-19T10:22:38.190Z,28.38
2022-10-19T10:28:02.139Z,31.09
2022-10-19T10:33:44.179Z,33.34
2022-10-19T10:39:08.286Z,35.22
2022-10-19T10:44:34.972Z,36.77
2022-10-19T10:50:02.628Z,38.77
2022-10-19T10:55:23.523Z,40.48
2022-10-19T11:00:45.291Z,40.90
2022-10-19T11:06:09.056Z,40.64
2022-10-19T11:11:39.903Z,42.75
2022-10-19T11:17:06.028Z,44.32
2022-10-19T11:22:40.130Z,44.31
2022-10-19T11:28:20.949Z,41.90
2022-10-19T11:33:54.004Z,42.59
2022-10-19T11:39:41.489Z,42.23
2022-10-19T11:45:15.635Z,42.88
2022-10-19T11:50:58.582Z,43.34
2022-10-19T11:57:03.237Z,44.27
2022-10-19T12:03:03.901Z,44.84
2022-10-19T12:08:30.532Z,45.33
2022-10-19T12:13:56.202Z,45.63
2022-10-19T12:19:22.803Z,46.17
2022-10-19T12:24:43.472Z,45.99
2022-10-19T12:30:18.433Z,41.93
2022-10-19T12:35:52.407Z,40.14
2022-10-19T12:41:18.613Z,42.51
2022-10-19T12:46:49.824Z,43.39
2022-10-19T12:52:15.908Z,44.50
2022-10-19T12:57:39.846Z,44.34
2022-10-19T13:03:25.122Z,42.40
2022-10-19T13:08:57.083Z,39.50
2022-10-19T13:14:17.579Z,35.93
2022-10-19T13:19:37.837Z,31.58
2022-10-19T13:25:16.714Z,28.18
2022-10-19T13:30:41.697Z,24.55
2022-10-19T13:36:06.530Z,21.82
2022-10-19T13:41:38.445Z,19.78
2022-10-19T13:47:31.839Z,18.59
2022-10-19T13:52:52.370Z,17.88
2022-10-19T13:58:36.941Z,17.08
2022-10-19T14:04:30.412Z,16.45
2022-10-19T14:09:50.816Z,16.11
2022-10-19T14:15:20.353Z,15.74
2022-10-19T14:20:41.057Z,15.10
2022-10-19T14:26:11.833Z,15.08
2022-10-19T14:31:36.415Z,14.72
2022-10-19T14:36:57.262Z,14.72
2022-10-19T14:42:17.923Z,14.55
2022-10-19T14:48:01.014Z,14.39
2022-10-19T14:53:39.777Z,14.33
2022-10-19T14:59:19.638Z,14.03
2022-10-19T15:04:40.490Z,14.03
2022-10-19T15:10:04.636Z,13.98
2022-10-19T15:15:30.271Z,13.90
2022-10-19T15:21:12.673Z,13.81
2022-10-19T15:26:33.575Z,13.77
2022-10-19T15:31:56.474Z,13.65
2022-10-19T15:37:21.483Z,13.52
2022-10-19T15:42:45.591Z,13.47
2022-10-19T15:48:15.859Z,13.30
2022-10-19T15:53:36.343Z,13.18
2022-10-19T15:58:59.136Z,13.02
2022-10-19T16:04:19.714Z,12.90
2022-10-19T16:09:40.284Z,12.75
2022-10-19T16:15:01.081Z,12.62
2022-10-19T16:20:23.034Z,12.47
2022-10-19T16:25:43.779Z,12.31
2022-10-19T16:31:04.112Z,12.15
2022-10-19T16:36:24.388Z,11.98
2022-10-19T16:41:44.874Z,11.85
2022-10-19T16:47:05.846Z,11.69
2022-10-19T16:52:31.910Z,11.52
2022-10-19T16:57:53.372Z,11.33
2022-10-19T17:03:14.189Z,11.19
2022-10-19T17:09:07.398Z,11.07
2022-10-19T17:14:15.177Z,10.93
2022-10-19T17:19:37.219Z,10.81
2022-10-19T17:24:57.544Z,10.70
2022-10-19T17:30:18.701Z,10.63
2022-10-19T17:35:39.096Z,10.54
2022-10-19T17:41:11.815Z,10.43
2022-10-19T17:46:34.973Z,10.32
2022-10-19T17:51:55.358Z,10.25
2022-10-19T17:57:15.590Z,10.12
2022-10-19T18:02:36.076Z,10.00
2022-10-19T18:07:57.112Z,9.87
2022-10-19T18:13:17.721Z,9.77
2022-10-19T18:18:41.164Z,9.64
2022-10-19T18:24:02.911Z,9.53
2022-10-19T18:29:26.000Z,9.43
2022-10-19T18:34:46.557Z,9.34
2022-10-19T18:40:10.325Z,9.22
2022-10-19T18:45:31.679Z,9.14
2022-10-19T18:50:52.404Z,9.07
2022-10-19T18:56:15.399Z,9.00
2022-10-19T19:01:35.945Z,8.91
2022-10-19T19:06:56.052Z,8.81
2022-10-19T19:12:17.182Z,8.72
2022-10-19T19:17:38.549Z,8.65
2022-10-19T19:22:59.270Z,8.58
2022-10-19T19:28:19.997Z,8.51
2022-10-19T19:33:40.704Z,8.47
2022-10-19T19:39:01.752Z,8.41
2022-10-19T19:44:22.465Z,8.36
2022-10-19T19:49:42.861Z,8.33
2022-10-19T19:55:04.236Z,8.29
2022-10-19T20:00:24.851Z,8.26
2022-10-19T20:05:45.424Z,8.22
2022-10-19T20:11:09.558Z,8.17
2022-10-19T20:16:34.226Z,8.15
2022-10-19T20:21:56.281Z,8.11
2022-10-19T20:27:16.961Z,8.11
2022-10-19T20:32:38.061Z,8.10
2022-10-19T20:37:59.075Z,8.07
2022-10-19T20:43:19.628Z,8.04
2022-10-19T20:48:40.773Z,8.02
2022-10-19T20:54:03.092Z,8.00
2022-10-19T20:59:27.765Z,7.98
2022-10-19T21:04:48.367Z,7.95
2022-10-19T21:10:08.847Z,7.91
2022-10-19T21:15:29.170Z,7.88
2022-10-19T21:20:49.750Z,7.84
2022-10-19T21:26:11.686Z,7.80
2022-10-19T21:31:32.293Z,7.78
2022-10-19T21:36:54.015Z,7.74
2022-10-19T21:42:14.352Z,7.69
2022-10-19T21:47:35.908Z,7.63
2022-10-19T21:52:56.657Z,7.59
2022-10-19T21:58:17.595Z,7.54
2022-10-19T22:03:38.339Z,7.52
2022-10-19T22:08:59.586Z,7.47
2022-10-19T22:14:20.203Z,7.39
2022-10-19T22:19:40.786Z,7.35
2022-10-19T22:25:01.656Z,7.29
2022-10-19T22:30:22.089Z,7.21
2022-10-19T22:35:42.647Z,7.16
2022-10-19T22:41:03.244Z,7.15
2022-10-19T22:46:23.740Z,7.14
2022-10-19T22:51:44.344Z,7.16
2022-10-19T22:57:05.691Z,7.16
2022-10-19T23:02:25.772Z,7.17
2022-10-19T23:07:46.577Z,7.18
2022-10-19T23:13:07.396Z,7.16
2022-10-19T23:18:31.802Z,7.15
2022-10-19T23:23:52.363Z,7.18
2022-10-19T23:29:12.814Z,7.22
2022-10-19T23:39:59.807Z,7.25
2022-10-19T23:45:20.386Z,7.27
2022-10-19T23:50:40.947Z,7.28
2022-10-19T23:56:03.912Z,7.24
